sensor_id;sensor_type;location;lat;lon;timestamp;temperature;humidity
24446;DHT22;13347;50.984;5.822;2023-04-24T00:02:06;10.00;1.00
24446;DHT22;13347;50.984;5.822;2023-04-24T00:04:36;9.90;1.00
24446;DHT22;13347;50.984;5.822;2023-04-24T00:07:05;9.90;1.00
24446;DHT22;13347;50.984;5.822;2023-04-24T00:09:32;9.90;1.00
24446;DHT22;13347;50.984;5.822;2023-04-24T00:11:59;9.90;1.00
24446;DHT22;13347;50.984;5.822;2023-04-24T00:14:28;9.90;1.00
24446;DHT22;13347;50.984;5.822;2023-04-24T00:16:55;9.90;1.00
24446;DHT22;13347;50.984;5.822;2023-04-24T00:19:23;9.90;1.00
24446;DHT22;13347;50.984;5.822;2023-04-24T00:21:50;9.90;1.00
24446;DHT22;13347;50.984;5.822;2023-04-24T00:24:17;9.80;1.00
24446;DHT22;13347;50.984;5.822;2023-04-24T00:26:44;9.70;1.00
24446;DHT22;13347;50.984;5.822;2023-04-24T00:29:11;9.70;1.00
24446;DHT22;13347;50.984;5.822;2023-04-24T00:31:38;9.70;1.00
24446;DHT22;13347;50.984;5.822;2023-04-24T00:34:05;9.70;1.00
24446;DHT22;13347;50.984;5.822;2023-04-24T00:36:34;9.60;1.00
24446;DHT22;13347;50.984;5.822;2023-04-24T00:39:01;9.60;1.00
24446;DHT22;13347;50.984;5.822;2023-04-24T00:41:28;9.70;1.00
24446;DHT22;13347;50.984;5.822;2023-04-24T00:43:56;9.70;1.00
24446;DHT22;13347;50.984;5.822;2023-04-24T00:46:22;9.70;1.00
24446;DHT22;13347;50.984;5.822;2023-04-24T00:48:50;9.70;1.00
24446;DHT22;13347;50.984;5.822;2023-04-24T00:51:17;9.70;1.00
24446;DHT22;13347;50.984;5.822;2023-04-24T00:53:45;9.70;1.00
24446;DHT22;13347;50.984;5.822;2023-04-24T00:56:12;9.70;1.00
24446;DHT22;13347;50.984;5.822;2023-04-24T00:58:40;9.60;1.00
24446;DHT22;13347;50.984;5.822;2023-04-24T01:01:07;9.70;1.00
24446;DHT22;13347;50.984;5.822;2023-04-24T01:03:35;9.60;1.00
24446;DHT22;13347;50.984;5.822;2023-04-24T01:06:03;9.70;1.00
24446;DHT22;13347;50.984;5.822;2023-04-24T01:08:31;9.70;1.00
24446;DHT22;13347;50.984;5.822;2023-04-24T01:10:59;9.70;1.00
24446;DHT22;13347;50.984;5.822;2023-04-24T01:13:27;9.70;1.00
24446;DHT22;13347;50.984;5.822;2023-04-24T01:15:54;9.60;1.00
24446;DHT22;13347;50.984;5.822;2023-04-24T01:18:21;9.60;1.00
24446;DHT22;13347;50.984;5.822;2023-04-24T01:20:48;9.60;1.00
24446;DHT22;13347;50.984;5.822;2023-04-24T01:23:19;9.60;1.00
24446;DHT22;13347;50.984;5.822;2023-04-24T01:25:46;9.60;1.00
24446;DHT22;13347;50.984;5.822;2023-04-24T01:28:13;9.60;1.00
24446;DHT22;13347;50.984;5.822;2023-04-24T01:30:40;9.50;1.00
24446;DHT22;13347;50.984;5.822;2023-04-24T01:33:08;9.60;1.00
24446;DHT22;13347;50.984;5.822;2023-04-24T01:35:35;9.60;1.00
24446;DHT22;13347;50.984;5.822;2023-04-24T01:38:02;9.60;1.00
24446;DHT22;13347;50.984;5.822;2023-04-24T01:40:31;9.50;1.00
24446;DHT22;13347;50.984;5.822;2023-04-24T01:42:58;9.60;1.00
24446;DHT22;13347;50.984;5.822;2023-04-24T01:45:25;9.60;1.00
24446;DHT22;13347;50.984;5.822;2023-04-24T01:47:52;9.70;1.00
24446;DHT22;13347;50.984;5.822;2023-04-24T01:50:19;9.70;1.00
24446;DHT22;13347;50.984;5.822;2023-04-24T01:52:46;9.60;1.00
24446;DHT22;13347;50.984;5.822;2023-04-24T01:55:13;9.60;1.00
24446;DHT22;13347;50.984;5.822;2023-04-24T01:57:42;9.60;1.00
24446;DHT22;13347;50.984;5.822;2023-04-24T10:39:49;11.40;1.00
24446;DHT22;13347;50.984;5.822;2023-04-24T10:42:20;12.10;1.00
24446;DHT22;13347;50.984;5.822;2023-04-24T10:44:47;12.60;1.00
24446;DHT22;13347;50.984;5.822;2023-04-24T10:47:14;12.60;50.50
24446;DHT22;13347;50.984;5.822;2023-04-24T10:49:41;12.20;1.00
24446;DHT22;13347;50.984;5.822;2023-04-24T10:52:08;12.00;99.90
24446;DHT22;13347;50.984;5.822;2023-04-24T10:54:35;11.90;99.90
24446;DHT22;13347;50.984;5.822;2023-04-24T11:02:38;11.40;1.00
24446;DHT22;13347;50.984;5.822;2023-04-24T11:05:06;10.90;1.00
24446;DHT22;13347;50.984;5.822;2023-04-24T11:07:47;10.60;1.00
24446;DHT22;13347;50.984;5.822;2023-04-24T11:10:37;10.50;99.90
24446;DHT22;13347;50.984;5.822;2023-04-24T11:13:04;10.70;1.00
24446;DHT22;13347;50.984;5.822;2023-04-24T11:15:31;10.80;99.90
24446;DHT22;13347;50.984;5.822;2023-04-24T11:18:00;11.20;1.00
24446;DHT22;13347;50.984;5.822;2023-04-24T22:52:34;8.30;1.00
24446;DHT22;13347;50.984;5.822;2023-04-24T22:55:01;8.30;1.00
24446;DHT22;13347;50.984;5.822;2023-04-24T22:57:28;8.30;1.00
24446;DHT22;13347;50.984;5.822;2023-04-24T22:59:55;8.20;1.00
24446;DHT22;13347;50.984;5.822;2023-04-24T23:02:22;8.20;1.00
24446;DHT22;13347;50.984;5.822;2023-04-24T23:04:49;8.20;1.00
24446;DHT22;13347;50.984;5.822;2023-04-24T23:07:16;8.20;1.00
24446;DHT22;13347;50.984;5.822;2023-04-24T23:09:44;8.10;1.00
24446;DHT22;13347;50.984;5.822;2023-04-24T23:12:11;8.10;1.00
24446;DHT22;13347;50.984;5.822;2023-04-24T23:14:38;8.10;1.00
24446;DHT22;13347;50.984;5.822;2023-04-24T23:17:05;8.00;1.00
24446;DHT22;13347;50.984;5.822;2023-04-24T23:19:32;7.90;1.00
24446;DHT22;13347;50.984;5.822;2023-04-24T23:21:59;7.90;1.00
24446;DHT22;13347;50.984;5.822;2023-04-24T23:24:26;8.10;1.00
24446;DHT22;13347;50.984;5.822;2023-04-24T23:26:55;8.10;1.00
24446;DHT22;13347;50.984;5.822;2023-04-24T23:29:22;8.10;1.00
24446;DHT22;13347;50.984;5.822;2023-04-24T23:31:50;8.00;1.00
24446;DHT22;13347;50.984;5.822;2023-04-24T23:34:17;7.90;1.00
24446;DHT22;13347;50.984;5.822;2023-04-24T23:36:44;7.70;1.00
24446;DHT22;13347;50.984;5.822;2023-04-24T23:39:11;7.80;1.00
24446;DHT22;13347;50.984;5.822;2023-04-24T23:41:38;7.70;1.00
24446;DHT22;13347;50.984;5.822;2023-04-24T23:44:07;7.80;1.00
24446;DHT22;13347;50.984;5.822;2023-04-24T23:46:34;7.80;1.00
24446;DHT22;13347;50.984;5.822;2023-04-24T23:49:00;7.80;1.00
24446;DHT22;13347;50.984;5.822;2023-04-24T23:51:28;7.80;1.00
24446;DHT22;13347;50.984;5.822;2023-04-24T23:53:56;7.80;1.00
24446;DHT22;13347;50.984;5.822;2023-04-24T23:56:23;7.80;1.00
24446;DHT22;13347;50.984;5.822;2023-04-24T23:58:51;7.80;1.00
